Capitol Logistics 317


KPDX
Portland International Airport
Portland, Oregon, US
KPHX
Phoenix Sky Harbor International Airport
Phoenix, Arizona, US

Route Details

Aircraft Information
Primary: Boeing 767-300BDSF
Backup: Not Available
Route Data
Distance: 878nm
Sched. Duration: 2h 00m
Avg. Duration: 2h 25m (+25m)
Times Flown: 5
Recm'd Route: BTG J159 DSD REO J523 ELY WINEN Q35 CORKR TENTS BRUSR1
Planned Altitude: 37,000ft
Origin Wx: KPDX 311153Z 29004KT 10SM FEW020 BKN043 OVC060 12/07 A3006 RMK AO2 SLP179 60000 70031 T01220072 10122 20117 51014
Dest. Wx: KPHX 311151Z 11005KT 10SM SCT120 SCT180 29/09 A2977 RMK AO2 SLP059 T02940094 10344 20294 53009
Notes:

Financial History
Total Freight: 394,167lbs
Average Load: 78,833lbs/flt
Fuel Used: 120,351lbs
Avg. Fuel Used: 24,070lbs/flt
Fuel Expense: $104,705
Avg. Fuel Expense: $20,941
Avg. Fuel Cost: $0.87/lbs
Total Gross Income: $535,904
Pilot Pay: $875
Total Expenses: $58,138
Total Revenue: $370,270
Average Revenue: $107,180.85